createdAt,value
2022-09-05T00:02:27.331Z,97788.72
2022-09-05T00:05:36.463Z,97796.34
2022-09-05T00:09:30.617Z,97792.50
2022-09-05T00:12:35.531Z,97781.41
2022-09-05T00:16:01.648Z,97784.38
2022-09-05T00:24:20.544Z,97783.66
2022-09-05T00:24:25.894Z,97782.13
2022-09-05T00:27:24.694Z,97775.81
2022-09-05T00:31:07.680Z,97774.66
2022-09-05T00:34:47.262Z,97772.19
2022-09-05T00:37:51.901Z,97767.50
2022-09-05T00:41:08.371Z,97764.00
2022-09-05T00:44:13.699Z,97764.59
2022-09-05T00:47:33.487Z,97774.06
2022-09-05T00:51:14.651Z,97785.47
2022-09-05T00:55:06.054Z,97790.19
2022-09-05T00:58:46.277Z,97789.28
2022-09-05T01:01:56.097Z,97791.75
2022-09-05T01:05:25.450Z,97798.41
2022-09-05T01:09:07.707Z,97795.63
2022-09-05T01:12:52.993Z,97787.56
2022-09-05T01:16:28.052Z,97791.72
2022-09-05T01:20:04.921Z,97791.66
2022-09-05T01:23:41.449Z,97779.84
2022-09-05T01:27:12.194Z,97775.72
2022-09-05T01:30:22.007Z,97771.84
2022-09-05T01:33:47.052Z,97772.28
2022-09-05T01:37:24.950Z,97766.69
2022-09-05T01:41:15.526Z,97762.34
2022-09-05T01:44:55.857Z,97756.09
2022-09-05T01:48:10.341Z,97757.91
2022-09-05T01:51:28.659Z,97760.63
2022-09-05T01:54:47.817Z,97755.06
2022-09-05T01:58:31.998Z,97767.50
2022-09-05T02:01:39.284Z,97763.28
2022-09-05T02:05:47.810Z,97772.97
2022-09-05T02:08:54.891Z,97772.22
2022-09-05T02:12:00.367Z,97779.75
2022-09-05T02:15:14.729Z,97770.09
2022-09-05T02:18:27.870Z,97768.56
2022-09-05T02:21:56.203Z,97762.41
2022-09-05T02:25:30.617Z,97763.91
2022-09-05T02:28:47.716Z,97762.84
2022-09-05T02:31:56.103Z,97764.81
2022-09-05T02:35:01.613Z,97765.84
2022-09-05T02:41:44.270Z,97759.22
2022-09-05T02:45:13.847Z,97767.22
2022-09-05T02:45:38.711Z,97757.41
2022-09-05T02:48:59.282Z,97756.13
2022-09-05T02:57:25.163Z,97755.69
2022-09-05T02:57:36.859Z,97753.59
2022-09-05T02:59:16.201Z,97761.94
2022-09-05T03:02:34.755Z,97756.38
2022-09-05T03:05:50.299Z,97758.38
2022-09-05T03:09:16.722Z,97753.28
2022-09-05T03:12:40.701Z,97746.34
2022-09-05T03:16:13.108Z,97752.84
2022-09-05T03:19:33.151Z,97747.66
2022-09-05T03:23:16.743Z,97747.50
2022-09-05T03:26:56.329Z,97751.94
2022-09-05T03:30:12.040Z,97747.69
2022-09-05T03:33:33.042Z,97753.78
2022-09-05T03:36:53.397Z,97747.94
2022-09-05T03:40:16.292Z,97761.09
2022-09-05T03:43:45.995Z,97760.09
2022-09-05T03:47:02.271Z,97768.06
2022-09-05T03:56:56.949Z,97771.72
2022-09-05T03:57:24.170Z,97765.44
2022-09-05T03:58:18.227Z,97765.19
2022-09-05T04:06:09.002Z,97760.03
2022-09-05T04:08:13.521Z,97764.75
2022-09-05T04:08:45.621Z,97758.69
2022-09-05T04:11:53.587Z,97760.41
2022-09-05T04:15:07.699Z,97758.25
2022-09-05T04:18:33.169Z,97749.63
2022-09-05T04:21:44.398Z,97758.41
2022-09-05T04:25:01.887Z,97750.56
2022-09-05T04:28:18.309Z,97761.88
2022-09-05T04:31:36.090Z,97764.34
2022-09-05T04:34:56.131Z,97759.69
2022-09-05T04:38:18.601Z,97768.16
2022-09-05T04:41:39.573Z,97764.06
2022-09-05T04:45:02.366Z,97774.25
2022-09-05T04:48:07.406Z,97766.25
2022-09-05T04:51:43.974Z,97765.47
2022-09-05T04:55:24.019Z,97770.31
2022-09-05T04:58:50.742Z,97774.59
2022-09-05T05:06:17.745Z,97775.00
2022-09-05T05:06:20.302Z,97771.94
2022-09-05T05:09:07.066Z,97778.00
2022-09-05T05:17:59.309Z,97782.53
2022-09-05T05:18:09.261Z,97779.31
2022-09-05T05:19:38.198Z,97770.88
2022-09-05T05:22:50.795Z,97781.38
2022-09-05T05:25:56.709Z,97776.06
2022-09-05T05:29:08.701Z,97778.25
2022-09-05T05:32:31.544Z,97792.84
2022-09-05T05:35:48.430Z,97805.00
2022-09-05T05:39:23.591Z,97797.81
2022-09-05T05:42:25.208Z,97804.06
2022-09-05T05:45:30.825Z,97813.22
2022-09-05T05:48:38.357Z,97804.78
2022-09-05T05:52:02.318Z,97814.09
2022-09-05T05:55:24.427Z,97814.47
2022-09-05T05:59:12.090Z,97822.66
2022-09-05T06:03:09.843Z,97819.00
2022-09-05T06:06:36.999Z,97813.53
2022-09-05T06:14:56.141Z,97818.28
2022-09-05T06:15:08.737Z,97827.91
2022-09-05T06:17:54.126Z,97828.09
2022-09-05T06:22:11.183Z,97829.88
2022-09-05T06:25:33.363Z,97822.78
2022-09-05T06:28:52.438Z,97824.78
2022-09-05T06:31:59.787Z,97824.78
2022-09-05T06:35:10.411Z,97828.88
2022-09-05T06:38:42.638Z,97822.94
2022-09-05T06:42:03.609Z,97830.53
2022-09-05T06:45:26.854Z,97831.66
2022-09-05T06:49:29.992Z,97834.19
2022-09-05T06:52:43.328Z,97832.56
2022-09-05T06:56:03.745Z,97835.50
2022-09-05T06:59:14.401Z,97838.59
2022-09-05T07:02:42.717Z,97839.69
2022-09-05T07:07:01.204Z,97832.31
2022-09-05T07:10:50.348Z,97832.94
2022-09-05T07:14:21.430Z,97830.53
2022-09-05T07:18:09.678Z,97820.19
2022-09-05T07:21:46.092Z,97825.50
2022-09-05T07:24:54.583Z,97820.03
2022-09-05T07:28:29.899Z,97816.31
2022-09-05T07:31:37.927Z,97821.25
2022-09-05T07:34:39.846Z,97817.09
2022-09-05T07:37:45.258Z,97820.16
2022-09-05T07:41:05.542Z,97818.56
2022-09-05T07:44:22.270Z,97816.75
2022-09-05T07:47:28.774Z,97822.75
2022-09-05T07:55:45.059Z,97809.16
2022-09-05T07:57:09.948Z,97807.66
2022-09-05T07:57:43.642Z,97808.88
2022-09-05T08:00:56.479Z,97801.97
2022-09-05T08:04:00.428Z,97804.81
2022-09-05T08:07:49.086Z,97805.00
2022-09-05T08:11:23.810Z,97805.44
2022-09-05T08:14:59.607Z,97799.25
2022-09-05T08:18:07.211Z,97797.31
2022-09-05T08:21:13.434Z,97796.34
2022-09-05T08:24:37.490Z,97799.44
2022-09-05T08:27:47.860Z,97785.50
2022-09-05T08:31:01.375Z,97786.69
2022-09-05T08:34:10.401Z,97791.63
2022-09-05T08:37:16.285Z,97788.63
2022-09-05T08:40:47.491Z,97788.50
2022-09-05T08:46:36.459Z,97789.34
2022-09-05T08:47:46.009Z,97788.78
2022-09-05T08:50:59.691Z,97789.16
2022-09-05T08:54:08.982Z,97784.88
2022-09-05T08:57:39.641Z,97786.06
2022-09-05T09:00:56.374Z,97782.53
2022-09-05T09:04:11.517Z,97784.19
2022-09-05T09:07:47.070Z,97785.41
2022-09-05T09:10:57.262Z,97780.75
2022-09-05T09:14:43.868Z,97775.25
2022-09-05T09:17:47.625Z,97775.69
2022-09-05T09:21:12.335Z,97764.25
2022-09-05T09:24:31.732Z,97776.38
2022-09-05T09:28:48.242Z,97763.53
2022-09-05T09:31:37.141Z,97766.13
2022-09-05T09:34:49.490Z,97769.16
2022-09-05T09:38:22.082Z,97768.66
2022-09-05T09:41:52.042Z,97754.97
2022-09-05T09:45:22.931Z,97758.19
2022-09-05T09:49:23.363Z,97754.00
2022-09-05T09:52:34.627Z,97751.56
2022-09-05T09:55:42.302Z,97750.66
2022-09-05T09:58:59.151Z,97749.13
2022-09-05T10:07:36.782Z,97752.28
2022-09-05T10:10:45.620Z,97746.78
2022-09-05T10:10:56.163Z,97748.84
2022-09-05T10:13:44.361Z,97746.06
2022-09-05T10:17:01.945Z,97755.47
2022-09-05T10:20:22.549Z,97740.38
2022-09-05T10:23:54.521Z,97748.81
2022-09-05T10:27:02.070Z,97745.28
2022-09-05T10:30:31.947Z,97739.19
2022-09-05T10:35:06.080Z,97736.09
2022-09-05T10:37:45.037Z,97719.50
2022-09-05T10:41:20.742Z,97712.63
2022-09-05T10:44:13.870Z,97707.19
2022-09-05T10:47:52.971Z,97699.84
2022-09-05T10:51:00.470Z,97701.44
2022-09-05T10:54:27.003Z,97698.53
2022-09-05T10:57:37.865Z,97703.34
2022-09-05T11:02:21.037Z,97703.66
2022-09-05T11:04:46.789Z,97693.59
2022-09-05T11:08:13.754Z,97695.28
2022-09-05T11:11:28.205Z,97706.59
2022-09-05T11:14:53.902Z,97700.50
2022-09-05T11:18:07.930Z,97695.50
2022-09-05T11:21:27.579Z,97692.13
2022-09-05T11:24:36.695Z,97696.03
2022-09-05T11:27:45.855Z,97680.09
2022-09-05T11:30:53.477Z,97675.78
2022-09-05T11:39:54.633Z,97672.50
2022-09-05T11:40:04.704Z,97675.28
2022-09-05T11:41:13.794Z,97679.56
2022-09-05T11:44:28.303Z,97680.75
2022-09-05T11:48:01.712Z,97678.63
2022-09-05T11:51:47.737Z,97672.31
2022-09-05T11:55:25.733Z,97676.44
2022-09-05T11:58:48.461Z,97670.47
2022-09-05T12:02:08.412Z,97671.78
2022-09-05T12:05:49.386Z,97665.16
2022-09-05T12:09:10.682Z,97663.47
2022-09-05T12:12:50.304Z,97665.84
2022-09-05T12:16:08.278Z,97655.38
2022-09-05T12:52:46.257Z,97635.09
2022-09-05T12:56:06.525Z,97627.03
2022-09-05T13:03:06.459Z,97629.97
2022-09-05T13:03:28.615Z,97626.47
2022-09-05T13:06:25.195Z,97619.69
2022-09-05T13:10:36.536Z,97611.34
2022-09-05T13:14:54.746Z,97616.56
2022-09-05T13:16:30.884Z,97611.97
2022-09-05T13:19:40.449Z,97607.16
2022-09-05T13:22:48.741Z,97602.06
2022-09-05T13:25:58.972Z,97596.34
2022-09-05T13:29:21.636Z,97598.34
2022-09-05T13:37:58.159Z,97599.13
2022-09-05T13:38:15.895Z,97586.66
2022-09-05T13:39:37.983Z,97593.03
2022-09-05T13:42:43.928Z,97579.38
2022-09-05T13:46:03.428Z,97580.94
2022-09-05T13:49:25.821Z,97574.84
2022-09-05T13:52:37.732Z,97571.69
2022-09-05T13:55:54.077Z,97566.53
2022-09-05T13:59:11.016Z,97563.41
2022-09-05T14:06:26.454Z,97557.56
2022-09-05T14:09:51.739Z,97556.63
2022-09-05T14:13:01.134Z,97557.22
2022-09-05T14:16:11.624Z,97550.31
2022-09-05T14:19:40.807Z,97551.00
2022-09-05T14:22:53.062Z,97558.88
2022-09-05T14:26:02.716Z,97551.66
2022-09-05T14:29:07.051Z,97549.50
2022-09-05T14:37:34.846Z,97552.53
2022-09-05T14:37:52.814Z,97547.81
2022-09-05T14:39:52.481Z,97549.63
2022-09-05T14:43:27.085Z,97546.47
2022-09-05T14:46:49.768Z,97538.91
2022-09-05T14:50:27.613Z,97530.69
2022-09-05T15:02:11.192Z,97523.34
2022-09-05T15:02:53.585Z,97530.00
2022-09-05T15:07:15.803Z,97525.25
2022-09-05T15:12:15.627Z,97517.28
2022-09-05T15:14:04.859Z,97513.91
2022-09-05T15:17:06.642Z,97512.03
2022-09-05T15:20:09.673Z,97509.47
2022-09-05T15:23:29.302Z,97514.69
2022-09-05T15:26:31.513Z,97512.63
2022-09-05T15:29:35.301Z,97516.31
2022-09-05T15:32:38.785Z,97504.66
2022-09-05T15:35:43.703Z,97501.75
2022-09-05T15:38:55.684Z,97497.31
2022-09-05T15:42:11.614Z,97499.47
2022-09-05T15:45:17.913Z,97499.16
2022-09-05T15:48:26.576Z,97497.28
2022-09-05T15:51:48.674Z,97499.06
2022-09-05T15:54:53.823Z,97501.97
2022-09-05T15:57:58.684Z,97498.63
2022-09-05T16:01:12.494Z,97499.34
2022-09-05T16:08:47.375Z,97497.19
2022-09-05T16:10:48.890Z,97495.16
2022-09-05T16:16:20.116Z,97494.56
2022-09-05T16:23:23.592Z,97489.44
2022-09-05T16:23:26.778Z,97493.97
2022-09-05T16:25:10.092Z,97495.34
2022-09-05T16:28:21.075Z,97489.28
2022-09-05T16:31:43.134Z,97482.41
2022-09-05T16:35:02.289Z,97484.91
2022-09-05T16:38:33.199Z,97482.81
2022-09-05T16:41:50.771Z,97475.25
2022-09-05T16:45:02.124Z,97479.47
2022-09-05T16:48:13.042Z,97472.09
2022-09-05T16:51:35.093Z,97476.72
2022-09-05T16:54:58.247Z,97474.88
2022-09-05T16:58:14.311Z,97471.56
2022-09-05T17:01:23.880Z,97470.28
2022-09-05T17:04:28.408Z,97465.28
2022-09-05T17:08:01.971Z,97471.78
2022-09-05T17:11:29.543Z,97464.06
2022-09-05T17:14:41.023Z,97468.25
2022-09-05T17:18:20.789Z,97471.19
2022-09-05T17:22:51.097Z,97467.63
2022-09-05T17:29:31.062Z,97475.75
2022-09-05T17:29:39.207Z,97473.63
2022-09-05T17:32:34.670Z,97462.53
2022-09-05T17:35:48.124Z,97461.03
2022-09-05T17:39:05.857Z,97463.13
2022-09-05T17:42:56.479Z,97459.75
2022-09-05T17:46:19.156Z,97465.56
2022-09-05T17:49:45.356Z,97471.91
2022-09-05T17:52:59.678Z,97473.28
2022-09-05T17:56:01.363Z,97480.94
2022-09-05T17:59:24.957Z,97478.81
2022-09-05T18:02:26.545Z,97485.00
2022-09-05T18:05:57.348Z,97484.38
2022-09-05T18:13:12.889Z,97480.88
2022-09-05T18:15:55.581Z,97486.19
2022-09-05T18:19:32.681Z,97482.41
2022-09-05T18:22:20.704Z,97497.81
2022-09-05T18:25:33.466Z,97491.09
2022-09-05T18:29:00.883Z,97497.19
2022-09-05T18:32:05.049Z,97502.13
2022-09-05T18:35:36.400Z,97506.09
2022-09-05T18:38:51.803Z,97510.78
2022-09-05T18:42:33.258Z,97514.25
2022-09-05T18:45:38.007Z,97510.84
2022-09-05T18:49:46.162Z,97519.03
2022-09-05T18:52:34.162Z,97518.53
2022-09-05T18:56:11.665Z,97523.38
2022-09-05T18:59:17.662Z,97524.13
2022-09-05T19:02:51.502Z,97520.16
2022-09-05T19:06:36.633Z,97526.31
2022-09-05T19:09:36.382Z,97524.06
2022-09-05T19:12:53.537Z,97534.91
2022-09-05T19:16:43.818Z,97526.78
2022-09-05T19:20:32.402Z,97524.94
2022-09-05T19:23:57.296Z,97522.41
2022-09-05T19:27:10.853Z,97520.28
2022-09-05T19:36:49.360Z,97522.19
2022-09-05T19:36:54.503Z,97515.56
2022-09-05T19:37:38.572Z,97516.44
2022-09-05T19:47:11.040Z,97515.34
2022-09-05T19:47:43.860Z,97511.63
2022-09-05T19:48:21.358Z,97505.75
2022-09-05T19:51:26.953Z,97506.03
2022-09-05T19:54:30.099Z,97505.00
2022-09-05T19:57:31.693Z,97504.41
2022-09-05T20:00:33.619Z,97503.88
2022-09-05T20:03:42.316Z,97494.13
2022-09-05T20:06:45.397Z,97501.47
2022-09-05T20:09:49.402Z,97494.19
2022-09-05T20:12:51.592Z,97483.41
2022-09-05T20:15:53.534Z,97493.47
2022-09-05T20:18:55.346Z,97497.47
2022-09-05T20:22:14.301Z,97496.50
2022-09-05T20:25:43.256Z,97489.69
2022-09-05T20:28:51.428Z,97490.34
2022-09-05T20:31:58.357Z,97484.50
2022-09-05T20:37:31.362Z,97487.94
2022-09-05T20:43:16.872Z,97477.31
2022-09-05T20:43:24.421Z,97480.25
2022-09-05T20:45:42.904Z,97486.34
2022-09-05T20:54:14.958Z,97488.94
2022-09-05T20:54:18.862Z,97490.94
2022-09-05T20:55:38.601Z,97486.59
2022-09-05T20:58:48.171Z,97496.41
2022-09-05T21:02:04.966Z,97504.44
2022-09-05T21:05:20.613Z,97505.53
2022-09-05T21:08:34.207Z,97502.44
2022-09-05T21:11:35.847Z,97509.44
2022-09-05T21:14:37.438Z,97497.88
2022-09-05T21:17:39.009Z,97507.00
2022-09-05T21:20:40.941Z,97509.38
2022-09-05T21:23:43.089Z,97499.66
2022-09-05T21:26:44.961Z,97494.44
2022-09-05T21:29:48.228Z,97496.09
2022-09-05T21:33:06.295Z,97499.94
2022-09-05T21:36:11.838Z,97501.53
2022-09-05T21:39:13.611Z,97497.44
2022-09-05T21:44:25.408Z,97503.34
2022-09-05T21:47:41.846Z,97493.94
2022-09-05T21:49:07.581Z,97490.72
2022-09-05T21:52:09.662Z,97491.91
2022-09-05T21:59:17.910Z,97501.34
2022-09-05T21:59:19.802Z,97493.44
2022-09-05T22:02:05.229Z,97502.56
2022-09-05T22:05:07.192Z,97492.84
2022-09-05T22:08:09.998Z,97494.56
2022-09-05T22:11:13.709Z,97492.25
2022-09-05T22:14:21.029Z,97482.63
2022-09-05T22:17:23.557Z,97476.47
2022-09-05T22:20:25.329Z,97471.75
2022-09-05T22:23:26.942Z,97484.72
2022-09-05T22:26:35.763Z,97478.41
2022-09-05T22:29:39.721Z,97476.94
2022-09-05T22:32:41.214Z,97481.09
2022-09-05T22:35:43.051Z,97474.81
2022-09-05T22:38:44.567Z,97481.75
2022-09-05T22:41:46.110Z,97484.13
2022-09-05T22:44:48.124Z,97479.94
2022-09-05T22:47:49.627Z,97480.66
2022-09-05T22:50:51.625Z,97490.03
2022-09-05T22:53:53.106Z,97483.94
2022-09-05T22:56:54.538Z,97486.97
2022-09-05T22:59:56.568Z,97489.56
2022-09-05T23:02:59.173Z,97492.56
2022-09-05T23:06:05.822Z,97488.56
2022-09-05T23:09:09.544Z,97490.91
2022-09-05T23:12:11.403Z,97485.81
2022-09-05T23:15:13.021Z,97488.53
2022-09-05T23:18:15.651Z,97483.00
2022-09-05T23:21:17.220Z,97482.16
2022-09-05T23:24:19.161Z,97472.03
2022-09-05T23:27:20.880Z,97474.72
2022-09-05T23:30:22.399Z,97475.78
2022-09-05T23:33:23.915Z,97482.81
2022-09-05T23:36:27.334Z,97486.28
2022-09-05T23:39:28.718Z,97474.47
2022-09-05T23:42:30.211Z,97481.25
2022-09-05T23:45:32.059Z,97475.66
2022-09-05T23:48:33.745Z,97469.63
2022-09-05T23:51:35.282Z,97473.03
2022-09-05T23:54:36.785Z,97456.56
2022-09-05T23:57:38.582Z,97462.44
